Latest Weather Observations for Narrandera Airport

IDN60801

Issued at 6:12 pm EDT Monday 5 December 2022 (issued every 10 minutes, with the page automatically refreshed every 10 minutes)

About weather observations | Map of weather stations | Latest weather observations for NSW | Other Formats
Station Details ID: 074148 Name: NARRANDERA AIRPORT AWS Lat: -34.70 Lon: 146.51 Height: 145.0 m
Data from the previous 72 hours. | See also: Recent months at Narrandera Airport
Date/Time
EDT
Temp
°C
App
Temp
°C
Dew
Point
°C
Rel
Hum
%
Delta-T
°C
Wind Press
QNH
hPa
Press
MSL
hPa
Rain since
9am
mm
Dir  Spd
km/h
Gust
km/h
Spd
kts
Gust
kts
05/06:00pm - - - - - W 20 28 11 15 1006.6 1005.9 -
05/05:30pm - - - - - W 17 22 9 12 1006.9 1006.2 -
05/05:00pm - - - - - WSW 19 30 10 16 1007.3 1006.6 -
05/04:30pm - - - - - SW 20 28 11 15 1007.5 1006.8 -
05/04:00pm - - - - - SW 19 26 10 14 1007.6 1006.9 -
05/03:30pm - - - - - SW 20 30 11 16 1007.7 1007.0 -
05/03:00pm - - - - - WSW 13 20 7 11 1008.0 1007.3 -
05/02:30pm - - - - - WSW 19 28 10 15 1008.3 1007.6 -
05/02:00pm - - - - - WSW 22 35 12 19 1008.1 1007.4 -
05/01:30pm - - - - - SW 20 32 11 17 1007.6 1006.9 -
05/01:00pm - - - - - WSW 19 30 10 16 1007.7 1007.0 -
05/12:30pm - - - - - WSW 20 30 11 16 1007.8 1007.1 -
05/12:00pm - - - - - W 17 22 9 12 1007.9 1007.2 -
05/11:30am - - - - - WSW 19 28 10 15 1008.0 1007.3 -
05/11:00am - - - - - W 19 26 10 14 1008.0 1007.3 -
05/10:30am - - - - - W 22 32 12 17 1007.7 1007.0 -
05/10:00am - - - - - WNW 13 19 7 10 1007.3 1006.6 -
05/09:30am - - - - - WNW 13 17 7 9 1007.7 1007.0 -
05/09:00am - - - - - WNW 15 22 8 12 1008.0 1007.3 0.0
05/08:30am - - - - - NW 19 24 10 13 1008.1 1007.4 0.0
05/08:00am - - - - - NW 15 20 8 11 1008.1 1007.4 0.0
05/07:30am - - - - - NW 15 17 8 9 1008.3 1007.6 0.0
05/07:21am - - - - - NNW 15 20 8 11 1008.1 1007.4 0.0
05/07:00am - - - - - NW 11 15 6 8 1007.9 1007.2 0.0
05/06:32am - - - - - NW 9 11 5 6 1007.7 1007.0 0.0
05/06:30am - - - - - NW 9 11 5 6 1007.7 1007.0 0.0
05/06:00am - - - - - NNW 13 15 7 8 1007.4 1006.7 0.0
05/05:30am - - - - - CALM 0 0 0 0 1007.2 1006.5 0.0
05/05:13am - - - - - CALM 0 0 0 0 1007.2 1006.5 0.0
05/05:00am - - - - - CALM 0 0 0 0 1007.3 1006.6 0.0
05/04:30am - - - - - CALM 0 6 0 3 1007.2 1006.5 0.0
05/04:06am - - - - - CALM 0 0 0 0 1007.4 1006.7 0.0
05/04:00am - - - - - CALM 0 0 0 0 1007.5 1006.8 0.0
05/03:30am - - - - - CALM 0 0 0 0 1007.6 1006.9 0.0
05/03:06am - - - - - CALM 0 0 0 0 1007.8 1007.1 0.0
05/03:00am - - - - - CALM 0 0 0 0 1007.8 1007.1 0.0
05/02:30am - - - - - E 6 7 3 4 1007.8 1007.1 0.0
05/02:00am - - - - - E 4 7 2 4 1008.0 1007.3 0.0
05/01:44am - - - - - CALM 0 0 0 0 1008.2 1007.5 0.0
05/01:30am - - - - - CALM 0 0 0 0 1008.4 1007.7 0.0
05/01:23am - - - - - CALM 0 0 0 0 1008.5 1007.9 0.0
05/01:11am - - - - - CALM 0 0 0 0 1008.6 1008.0 0.0
05/01:00am - - - - - CALM 0 0 0 0 1008.6 1008.0 0.0
05/12:30am - - - - - CALM 0 0 0 0 1009.0 1008.4 0.0
05/12:00am - - - - - CALM 0 0 0 0 1009.3 1008.7 0.0
 
Date/Time
EDT
Temp
°C
App
Temp
°C
Dew
Point
°C
Rel
Hum
%
Delta-T
°C
Wind Press
QNH
hPa
Press
MSL
hPa
Rain since
9am
mm
Dir  Spd
km/h
Gust
km/h
Spd
kts
Gust
kts
04/11:30pm - - - - - CALM 0 0 0 0 1009.5 1008.9 0.0
04/11:13pm - - - - - CALM 0 0 0 0 1009.6 1009.0 0.0
04/11:00pm - - - - - CALM 0 0 0 0 1009.8 1009.2 0.0
04/10:38pm - - - - - CALM 0 0 0 0 1010.0 1009.4 0.0
04/10:30pm - - - - - CALM 0 0 0 0 1010.1 1009.5 0.0
04/10:00pm - - - - - CALM 0 0 0 0 1010.3 1009.7 0.0
04/09:30pm - - - - - CALM 0 0 0 0 1010.2 1009.6 0.0
04/09:08pm - - - - - CALM 0 0 0 0 1010.0 1009.4 0.0
04/09:00pm - - - - - CALM 0 0 0 0 1010.0 1009.4 0.0
04/08:39pm - - - - - CALM 0 0 0 0 1009.8 1009.2 0.0
04/08:31pm - - - - - CALM 0 0 0 0 1009.9 1009.3 0.0
04/08:30pm - - - - - CALM 0 0 0 0 1009.9 1009.3 0.0
04/08:12pm - - - - - CALM 0 0 0 0 1009.9 1009.3 0.0
04/08:00pm - - - - - CALM 0 0 0 0 1009.8 1009.2 0.0
04/07:47pm - - - - - WSW 2 7 1 4 1009.8 1009.2 0.0
04/07:30pm - - - - - WSW 6 7 3 4 1009.9 1009.3 0.0
04/07:20pm - - - - - WSW 7 9 4 5 1009.9 1009.3 0.0
04/07:00pm - - - - - WSW 9 13 5 7 1009.7 1009.1 0.0
04/06:30pm - - - - - W 9 20 5 11 1009.6 1009.0 0.0
04/06:00pm - - - - - SW 9 15 5 8 1009.5 1008.9 0.0
04/05:30pm - - - - - SW 6 11 3 6 1009.6 1009.0 0.0
04/05:00pm - - - - - SSW 7 17 4 9 1009.8 1009.2 0.0
04/04:30pm - - - - - WSW 9 15 5 8 1010.2 1009.6 0.0
04/04:00pm - - - - - WSW 11 20 6 11 1010.5 1009.9 0.0
04/03:30pm - - - - - N 4 9 2 5 1010.9 1010.3 0.0
04/03:00pm - - - - - NNE 4 9 2 5 1011.4 1010.8 0.0
04/02:45pm - - - - - WNW 7 19 4 10 1011.6 1011.0 0.0
04/02:30pm - - - - - WNW 7 15 4 8 1011.9 1011.3 0.0
04/02:00pm - - - - - SSW 11 20 6 11 1012.2 1011.6 0.0
04/01:30pm - - - - - WNW 6 17 3 9 1012.7 1012.0 0.0
04/01:00pm - - - - - S 13 19 7 10 1013.1 1012.4 0.0
04/12:30pm - - - - - SE 7 11 4 6 1013.6 1012.9 0.0
04/12:00pm - - - - - NE 6 13 3 7 1013.8 1013.1 0.0
04/11:30am - - - - - NNW 7 11 4 6 1014.3 1013.6 0.0
04/11:00am - - - - - WNW 11 17 6 9 1014.7 1014.1 0.0
04/10:30am - - - - - WNW 4 13 2 7 1014.8 1014.2 0.0
04/10:00am - - - - - N 4 9 2 5 1015.0 1014.4 0.0
04/09:30am - - - - - ESE 4 9 2 5 1015.3 1014.7 0.0
04/09:29am - - - - - E 6 9 3 5 1015.3 1014.7 0.0
04/09:27am - - - - - ENE 6 9 3 5 1015.3 1014.7 0.0
04/09:00am - - - - - CALM 0 6 0 3 1015.4 1014.8 0.0
04/08:52am - - - - - NE 4 7 2 4 1015.3 1014.7 0.0
04/08:30am - - - - - NE 7 11 4 6 1015.4 1014.8 0.0
04/08:00am - - - - - ENE 6 11 3 6 1015.1 1014.5 0.0
04/07:30am - - - - - ENE 2 7 1 4 1014.8 1014.2 0.0
04/07:00am - - - - - ESE 7 9 4 5 1014.5 1013.9 0.0
04/06:30am - - - - - ESE 9 13 5 7 1014.3 1013.6 0.0
04/06:00am - - - - - SE 2 6 1 3 1014.0 1013.3 0.0
04/05:45am - - - - - ESE 6 7 3 4 1013.9 1013.2 0.0
04/05:30am - - - - - CALM 0 0 0 0 1013.8 1013.1 0.0
04/05:01am - - - - - CALM 0 0 0 0 1013.7 1013.0 0.0
04/05:00am - - - - - CALM 0 0 0 0 1013.7 1013.0 0.0
04/04:46am - - - - - CALM 0 0 0 0 1013.7 1013.0 0.0
04/04:30am - - - - - CALM 0 0 0 0 1013.6 1012.9 0.0
04/04:00am - - - - - CALM 0 0 0 0 1013.7 1013.0 0.0
04/03:54am - - - - - CALM 0 0 0 0 1013.8 1013.1 0.0
04/03:44am - - - - - CALM 0 0 0 0 1013.9 1013.2 0.0
04/03:30am - - - - - CALM 0 0 0 0 1013.9 1013.2 0.0
04/03:00am - - - - - CALM 0 2 0 1 1013.9 1013.2 0.0
04/02:30am - - - - - CALM 0 0 0 0 1014.0 1013.3 0.0
04/02:00am - - - - - CALM 0 0 0 0 1014.2 1013.5 0.0
04/01:30am - - - - - CALM 0 0 0 0 1014.4 1013.7 0.0
04/01:22am - - - - - CALM 0 0 0 0 1014.4 1013.7 0.0
04/01:05am - - - - - CALM 0 0 0 0 1014.5 1013.9 0.0
04/01:00am - - - - - CALM 0 0 0 0 1014.5 1013.9 0.0
04/12:30am - - - - - CALM 0 0 0 0 1014.6 1014.0 0.0
04/12:00am - - - - - CALM 0 0 0 0 1014.7 1014.1 0.0
 
Date/Time
EDT
Temp
°C
App
Temp
°C
Dew
Point
°C
Rel
Hum
%
Delta-T
°C
Wind Press
QNH
hPa
Press
MSL
hPa
Rain since
9am
mm
Dir  Spd
km/h
Gust
km/h
Spd
kts
Gust
kts
03/11:30pm - - - - - CALM 0 0 0 0 1014.9 1014.3 0.0
03/11:00pm - - - - - CALM 0 0 0 0 1014.8 1014.2 0.0
03/10:30pm - - - - - CALM 0 0 0 0 1014.7 1014.1 0.0
03/10:00pm - - - - - CALM 0 0 0 0 1014.6 1014.0 0.0
03/09:30pm - - - - - CALM 0 0 0 0 1014.4 1013.7 0.0
03/09:22pm - - - - - CALM 0 0 0 0 1014.3 1013.6 0.0
03/09:11pm - - - - - CALM 0 0 0 0 1014.2 1013.5 0.0
03/09:00pm - - - - - CALM 0 0 0 0 1014.1 1013.4 0.0
03/08:30pm - - - - - CALM 0 0 0 0 1014.0 1013.3 0.0
03/08:12pm - - - - - SW 2 6 1 3 1013.9 1013.2 0.0
03/08:00pm - - - - - SW 6 6 3 3 1013.9 1013.2 0.0
03/07:30pm - - - - - SW 6 9 3 5 1013.9 1013.2 0.0
03/07:00pm - - - - - S 9 13 5 7 1013.8 1013.1 0.0
03/06:30pm - - - - - SSE 6 13 3 7 1013.5 1012.8 0.0
03/06:00pm - - - - - ESE 4 11 2 6 1013.5 1012.8 0.0
03/05:30pm - - - - - SE 13 20 7 11 1013.6 1012.9 0.0
03/05:00pm - - - - - E 7 17 4 9 1013.7 1013.0 0.0
03/04:50pm - - - - - ESE 13 19 7 10 1013.8 1013.1 0.0
03/04:30pm - - - - - S 9 19 5 10 1013.9 1013.2 0.0
03/04:19pm - - - - - S 7 15 4 8 1014.0 1013.3 0.0
03/04:00pm - - - - - WSW 9 15 5 8 1014.1 1013.4 0.0
03/03:30pm - - - - - W 11 17 6 9 1014.5 1013.9 0.0
03/03:00pm - - - - - SSW 9 15 5 8 1014.9 1014.3 0.0
03/02:30pm - - - - - WSW 11 17 6 9 1015.3 1014.7 0.0
03/02:00pm - - - - - SW 9 19 5 10 1015.7 1015.1 0.0
03/01:30pm - - - - - S 9 17 5 9 1016.1 1015.5 0.0
03/01:00pm - - - - - NNW 7 17 4 9 1016.5 1015.9 0.0
03/12:30pm - - - - - WSW 9 17 5 9 1016.9 1016.3 0.0
03/12:00pm - - - - - NNW 11 22 6 12 1017.2 1016.6 0.0
03/11:30am - - - - - N 9 17 5 9 1017.4 1016.8 0.0
03/11:00am - - - - - N 15 22 8 12 1017.8 1017.2 0.0
03/10:30am - - - - - NNE 15 24 8 13 1017.9 1017.3 0.0
03/10:00am - - - - - NNE 17 28 9 15 1018.1 1017.5 0.0
03/09:30am - - - - - N 20 26 11 14 1018.2 1017.6 0.0
03/09:00am - - - - - NNE 19 22 10 12 1018.3 1017.7 0.0
03/08:30am - - - - - NE 15 20 8 11 1018.2 1017.6 0.0
03/08:00am - - - - - NE 17 20 9 11 1017.9 1017.3 0.0
03/07:30am - - - - - ENE 13 17 7 9 1017.6 1017.0 0.0
03/07:00am - - - - - ENE 13 17 7 9 1017.3 1016.7 0.0
03/06:30am - - - - - ENE 9 13 5 7 1017.1 1016.5 0.0
03/06:00am - - - - - ENE 9 11 5 6 1016.8 1016.2 0.0
03/05:30am - - - - - ENE 7 11 4 6 1016.4 1015.8 0.0
03/05:00am - - - - - ESE 11 13 6 7 1016.1 1015.5 0.0
03/04:30am - - - - - E 13 13 7 7 1015.9 1015.3 0.0
03/04:00am - - - - - E 11 13 6 7 1015.7 1015.1 0.0
03/03:30am - - - - - ESE 9 11 5 6 1015.6 1015.0 0.0
03/03:00am - - - - - E 13 17 7 9 1015.4 1014.8 0.0
03/02:30am - - - - - E 13 15 7 8 1015.4 1014.8 0.0
03/02:00am - - - - - E 9 13 5 7 1015.5 1014.9 0.0
03/01:30am - - - - - ENE 7 11 4 6 1015.5 1014.9 0.0
03/01:00am - - - - - ESE 11 13 6 7 1015.7 1015.1 0.0
03/12:30am - - - - - ESE 9 11 5 6 1015.8 1015.2 0.0
03/12:00am - - - - - E 7 7 4 4 1015.7 1015.1 0.0
 
Date/Time
EDT
Temp
°C
App
Temp
°C
Dew
Point
°C
Rel
Hum
%
Delta-T
°C
Wind Press
QNH
hPa
Press
MSL
hPa
Rain since
9am
mm
Dir  Spd
km/h
Gust
km/h
Spd
kts
Gust
kts
02/11:30pm - - - - - ESE 6 9 3 5 1015.6 1015.0 0.0
02/11:00pm - - - - - CALM 0 0 0 0 1015.5 1014.9 0.0
02/10:30pm - - - - - CALM 0 6 0 3 1015.5 1014.9 0.0
02/10:00pm - - - - - CALM 0 6 0 3 1015.3 1014.7 0.0
02/09:30pm - - - - - CALM 0 0 0 0 1015.0 1014.4 0.0
02/09:00pm - - - - - CALM 0 7 0 4 1014.8 1014.2 0.0
02/08:30pm - - - - - CALM 0 0 0 0 1014.5 1013.9 0.0
02/08:00pm - - - - - NE 6 7 3 4 1014.3 1013.6 0.0
02/07:30pm - - - - - NE 9 13 5 7 1014.0 1013.3 0.0
02/07:00pm - - - - - NE 9 13 5 7 1013.8 1013.1 0.0
02/06:30pm - - - - - NE 11 15 6 8 1013.6 1012.9 0.0

Other formats

Comma delimited format used in spreadsheet applications
http://www.bom.gov.au/fwo/IDN60801/IDN60801.95706.axf

JavaScript Object Notation format (JSON) in row-major order
http://www.bom.gov.au/fwo/IDN60801/IDN60801.95706.json

Data quality

Most of these data are generated automatically and are frequently updated. Quality checks on data are not normally performed. It is possible for incorrect values to appear. Refer to information at About Latest Weather Observations and please check the disclaimer before using these data.